Wetterdaten: Woche 19.09.16 - 25.09.16 (KW38)
Datum Zeit Temp. A. Feuchte A. Luftdruck Regen Wind Richtung Sonnenschein ET UV Solar Taupunkt Windchill Windben Empfang
19.09.2016 00:00 13,5 C 92 % 1010,0 hPa 0,0 l/m 6,8 km/h (2 Bft) W-SW 0,00 h 0,000 mm 0,0 UV-I 0 W/m 12,2 C 13,0 C 10,7 km/h (2 Bft) 99,36 %
19.09.2016 01:00 13,6 C 91 % 1010,0 hPa 0,0 l/m 4,7 km/h (1 Bft) W-SW 0,00 h 0,000 mm 0,0 UV-I 0 W/m 12,2 C 13,6 C 7,3 km/h (2 Bft) 98,59 %
19.09.2016 02:00 13,7 C 92 % 1010,1 hPa 0,0 l/m 3,3 km/h (1 Bft) W-SW 0,00 h 0,000 mm 0,0 UV-I 0 W/m 12,4 C 13,7 C 5,5 km/h (1 Bft) 98,51 %
19.09.2016 03:00 13,9 C 92 % 1010,1 hPa 0,0 l/m 4,8 km/h (1 Bft) SW 0,00 h 0,000 mm 0,0 UV-I 0 W/m 12,7 C 13,9 C 7,3 km/h (2 Bft) 97,77 %
19.09.2016 04:00 13,7 C 95 % 1010,0 hPa 0,2 l/m 2,7 km/h (1 Bft) S-SW 0,00 h 0,000 mm 0,0 UV-I 0 W/m 13,0 C 13,7 C 4,5 km/h (1 Bft) 99,19 %
19.09.2016 05:00 13,8 C 96 % 1010,1 hPa 0,4 l/m 3,3 km/h (1 Bft) S-SW 0,00 h 0,000 mm 0,0 UV-I 0 W/m 13,1 C 13,8 C 5,6 km/h (1 Bft) 97,91 %
19.09.2016 06:00 13,7 C 96 % 1010,0 hPa 0,0 l/m 5,4 km/h (1 Bft) W-SW 0,00 h 0,000 mm 0,0 UV-I 0 W/m 13,1 C 13,7 C 8,9 km/h (2 Bft) 98,37 %
19.09.2016 07:00 13,9 C 95 % 1010,1 hPa 0,0 l/m 5,7 km/h (1 Bft) SW 0,00 h 0,000 mm 0,0 UV-I 9 W/m 13,1 C 13,8 C 9,3 km/h (2 Bft) 97,85 %
19.09.2016 08:00 14,0 C 95 % 1010,3 hPa 0,0 l/m 6,4 km/h (2 Bft) W-SW 0,00 h 0,000 mm 0,0 UV-I 32 W/m 13,2 C 13,8 C 11,1 km/h (2 Bft) 99,16 %
19.09.2016 09:00 14,4 C 95 % 1010,7 hPa 0,0 l/m 8,0 km/h (2 Bft) W-SW 0,00 h 0,025 mm 0,5 UV-I 85 W/m 13,7 C 13,5 C 13,1 km/h (3 Bft) 98,16 %
19.09.2016 10:00 14,4 C 96 % 1011,3 hPa 0,8 l/m 8,2 km/h (2 Bft) W-SW 0,00 h 0,051 mm 0,4 UV-I 58 W/m 13,7 C 13,3 C 14,4 km/h (3 Bft) 98,86 %
19.09.2016 11:00 14,0 C 96 % 1011,6 hPa 3,4 l/m 11,6 km/h (2 Bft) W-SW 0,00 h 0,026 mm 0,6 UV-I 86 W/m 13,4 C 11,4 C 18,4 km/h (3 Bft) 97,88 %
19.09.2016 12:00 14,2 C 96 % 1011,8 hPa 0,0 l/m 13,1 km/h (3 Bft) W-SW 0,00 h 0,050 mm 0,9 UV-I 128 W/m 13,5 C 10,9 C 20,9 km/h (4 Bft) 98,61 %
19.09.2016 13:00 14,2 C 96 % 1012,1 hPa 2,8 l/m 12,5 km/h (3 Bft) W-SW 0,00 h 0,077 mm 0,6 UV-I 91 W/m 13,5 C 11,1 C 19,4 km/h (3 Bft) 98,48 %
19.09.2016 14:00 14,1 C 95 % 1012,3 hPa 0,2 l/m 12,3 km/h (3 Bft) W-SW 0,00 h 0,050 mm 0,6 UV-I 77 W/m 13,3 C 11,2 C 19,0 km/h (3 Bft) 98,38 %
19.09.2016 15:00 13,8 C 96 % 1012,6 hPa 2,2 l/m 9,4 km/h (2 Bft) W-SW 0,00 h 0,051 mm 0,3 UV-I 37 W/m 13,2 C 12,2 C 15,1 km/h (3 Bft) 97,72 %
19.09.2016 16:00 13,7 C 96 % 1012,8 hPa 1,6 l/m 9,5 km/h (2 Bft) W-SW 0,00 h 0,026 mm 0,0 UV-I 31 W/m 13,1 C 12,0 C 16,0 km/h (3 Bft) 98,92 %
19.09.2016 17:00 13,6 C 96 % 1012,9 hPa 0,8 l/m 10,7 km/h (2 Bft) W-SW 0,00 h 0,025 mm 0,0 UV-I 14 W/m 13,0 C 11,3 C 17,4 km/h (3 Bft) 98,39 %
19.09.2016 18:00 13,3 C 96 % 1013,1 hPa 1,6 l/m 12,0 km/h (2 Bft) W-SW 0,00 h 0,000 mm 0,0 UV-I 5 W/m 12,7 C 10,4 C 19,2 km/h (3 Bft) 98,88 %
19.09.2016 19:00 13,1 C 96 % 1013,5 hPa 4,8 l/m 13,5 km/h (3 Bft) W-SW 0,00 h 0,000 mm 0,0 UV-I 0 W/m 12,5 C 9,5 C 21,4 km/h (4 Bft) 97,88 %
19.09.2016 20:00 12,9 C 96 % 1014,0 hPa 4,8 l/m 12,4 km/h (3 Bft) W-SW 0,00 h 0,000 mm 0,0 UV-I 0 W/m 12,4 C 9,8 C 19,0 km/h (3 Bft) 99,29 %
19.09.2016 21:00 12,8 C 97 % 1014,3 hPa 2,6 l/m 11,9 km/h (2 Bft) W-SW 0,00 h 0,000 mm 0,0 UV-I 0 W/m 12,4 C 9,8 C 18,9 km/h (3 Bft) 98,29 %
19.09.2016 22:00 12,8 C 97 % 1014,4 hPa 1,2 l/m 9,5 km/h (2 Bft) W-SW 0,00 h 0,000 mm 0,0 UV-I 0 W/m 12,3 C 11,0 C 15,0 km/h (3 Bft) 98,66 %
19.09.2016 23:00 12,7 C 97 % 1014,4 hPa 0,4 l/m 8,8 km/h (2 Bft) W-SW 0,00 h 0,000 mm 0,0 UV-I 0 W/m 12,3 C 11,2 C 13,6 km/h (3 Bft) 97,97 %
20.09.2016 00:00 12,6 C 97 % 1014,5 hPa 0,8 l/m 9,5 km/h (2 Bft) W-SW 0,00 h 0,000 mm 0,0 UV-I 0 W/m 12,2 C 10,8 C 14,6 km/h (3 Bft) 99,27 %
20.09.2016 01:00 12,4 C 97 % 1014,6 hPa 0,6 l/m 7,7 km/h (2 Bft) W-SW 0,00 h 0,000 mm 0,0 UV-I 0 W/m 12,0 C 11,5 C 12,5 km/h (3 Bft) 98,16 %
20.09.2016 02:00 12,3 C 98 % 1014,7 hPa 1,0 l/m 4,8 km/h (1 Bft) W 0,00 h 0,000 mm 0,0 UV-I 0 W/m 11,9 C 12,0 C 8,7 km/h (2 Bft) 99,01 %
20.09.2016 03:00 11,8 C 97 % 1014,7 hPa 2,0 l/m 1,5 km/h (1 Bft) W-NW 0,00 h 0,000 mm 0,0 UV-I 0 W/m 11,4 C 11,8 C 3,9 km/h (1 Bft) 97,50 %
20.09.2016 04:00 11,8 C 98 % 1014,8 hPa 1,8 l/m 0,8 km/h (0 Bft) NW 0,00 h 0,000 mm 0,0 UV-I 0 W/m 11,5 C 11,8 C 2,7 km/h (1 Bft) 98,62 %
20.09.2016 05:00 11,8 C 98 % 1014,9 hPa 0,0 l/m 2,3 km/h (1 Bft) W-NW 0,00 h 0,000 mm 0,0 UV-I 0 W/m 11,5 C 11,8 C 4,9 km/h (1 Bft) 97,09 %
20.09.2016 06:00 11,7 C 98 % 1015,1 hPa 0,6 l/m 1,4 km/h (1 Bft) W-NW 0,00 h 0,000 mm 0,0 UV-I 0 W/m 11,4 C 11,7 C 3,4 km/h (1 Bft) 98,66 %
20.09.2016 07:00 11,2 C 98 % 1015,6 hPa 0,8 l/m 3,2 km/h (1 Bft) N-NO 0,00 h 0,000 mm 0,0 UV-I 7 W/m 10,9 C 11,2 C 6,7 km/h (2 Bft) 98,28 %
20.09.2016 08:00 11,0 C 97 % 1016,1 hPa 0,6 l/m 1,4 km/h (1 Bft) S 0,00 h 0,000 mm 0,0 UV-I 30 W/m 10,6 C 11,0 C 2,9 km/h (1 Bft) 98,80 %
20.09.2016 09:00 11,3 C 97 % 1016,3 hPa 0,0 l/m 1,5 km/h (1 Bft) S 0,00 h 0,025 mm 0,0 UV-I 57 W/m 10,9 C 11,3 C 3,1 km/h (1 Bft) 97,34 %
20.09.2016 10:00 11,8 C 95 % 1016,7 hPa 0,0 l/m 1,4 km/h (1 Bft) S-SO 0,00 h 0,026 mm 0,6 UV-I 90 W/m 11,1 C 11,8 C 3,5 km/h (1 Bft) 98,66 %
20.09.2016 11:00 12,4 C 93 % 1016,7 hPa 0,0 l/m 3,5 km/h (1 Bft) W-SW 0,00 h 0,051 mm 0,9 UV-I 143 W/m 11,3 C 12,4 C 5,9 km/h (2 Bft) 98,42 %
20.09.2016 12:00 13,0 C 91 % 1016,5 hPa 0,0 l/m 5,8 km/h (2 Bft) SW 0,00 h 0,076 mm 1,6 UV-I 261 W/m 11,5 C 12,9 C 9,0 km/h (2 Bft) 98,94 %
20.09.2016 13:00 13,6 C 86 % 1016,3 hPa 0,0 l/m 5,0 km/h (1 Bft) SW 0,00 h 0,127 mm 1,5 UV-I 242 W/m 11,2 C 13,6 C 8,5 km/h (2 Bft) 98,77 %
20.09.2016 14:00 13,8 C 83 % 1015,9 hPa 0,0 l/m 7,8 km/h (2 Bft) SW 0,00 h 0,127 mm 1,2 UV-I 205 W/m 10,9 C 12,9 C 11,9 km/h (2 Bft) 98,76 %
20.09.2016 15:00 13,8 C 81 % 1015,9 hPa 0,0 l/m 6,9 km/h (2 Bft) S-SW 0,00 h 0,127 mm 1,0 UV-I 197 W/m 10,6 C 13,2 C 11,5 km/h (2 Bft) 98,37 %
20.09.2016 16:00 13,9 C 79 % 1015,9 hPa 0,0 l/m 7,1 km/h (2 Bft) S-SW 0,17 h 0,127 mm 0,7 UV-I 195 W/m 10,3 C 13,3 C 12,2 km/h (2 Bft) 99,16 %
20.09.2016 17:00 14,1 C 79 % 1016,1 hPa 0,0 l/m 5,8 km/h (1 Bft) S-SW 0,73 h 0,127 mm 0,4 UV-I 164 W/m 10,5 C 13,9 C 9,2 km/h (2 Bft) 98,76 %
20.09.2016 18:00 13,3 C 82 % 1016,2 hPa 0,0 l/m 4,6 km/h (1 Bft) S-SW 0,00 h 0,101 mm 0,0 UV-I 21 W/m 10,3 C 13,3 C 7,5 km/h (2 Bft) 99,28 %
20.09.2016 19:00 12,5 C 89 % 1016,5 hPa 0,0 l/m 2,8 km/h (1 Bft) S 0,00 h 0,026 mm 0,0 UV-I 4 W/m 10,7 C 12,5 C 4,6 km/h (1 Bft) 98,49 %
20.09.2016 20:00 12,1 C 92 % 1017,1 hPa 0,0 l/m 3,2 km/h (1 Bft) S 0,00 h 0,000 mm 0,0 UV-I 0 W/m 10,8 C 12,1 C 5,1 km/h (1 Bft) 99,25 %
20.09.2016 21:00 12,0 C 93 % 1017,3 hPa 0,0 l/m 1,5 km/h (1 Bft) SO 0,00 h 0,000 mm 0,0 UV-I 0 W/m 10,9 C 12,0 C 3,4 km/h (1 Bft) 98,43 %
20.09.2016 22:00 11,8 C 94 % 1017,5 hPa 0,0 l/m 0,9 km/h (0 Bft) S-SO 0,00 h 0,000 mm 0,0 UV-I 0 W/m 10,8 C 11,8 C 2,3 km/h (1 Bft) 98,97 %
20.09.2016 23:00 11,3 C 94 % 1017,7 hPa 0,0 l/m 1,1 km/h (0 Bft) S-SO 0,00 h 0,000 mm 0,0 UV-I 0 W/m 10,4 C 11,3 C 2,0 km/h (1 Bft) 98,60 %
21.09.2016 00:00 10,9 C 95 % 1017,6 hPa 0,0 l/m 0,6 km/h (0 Bft) S-SO 0,00 h 0,000 mm 0,0 UV-I 0 W/m 10,2 C 10,9 C 1,1 km/h (1 Bft) 99,52 %
21.09.2016 01:00 10,3 C 96 % 1017,4 hPa 0,0 l/m 0,3 km/h (0 Bft) S-SO 0,00 h 0,000 mm 0,0 UV-I 0 W/m 9,6 C 10,3 C 1,0 km/h (0 Bft) 98,13 %
21.09.2016 02:00 9,3 C 97 % 1017,3 hPa 0,0 l/m 0,7 km/h (0 Bft) S-SO 0,00 h 0,000 mm 0,0 UV-I 0 W/m 8,8 C 9,3 C 1,7 km/h (1 Bft) 99,33 %
21.09.2016 03:00 8,5 C 97 % 1017,2 hPa 0,0 l/m 1,6 km/h (1 Bft) O-NO 0,00 h 0,000 mm 0,0 UV-I 0 W/m 8,0 C 8,5 C 2,9 km/h (1 Bft) 97,77 %
21.09.2016 04:00 7,9 C 96 % 1017,2 hPa 0,0 l/m 2,1 km/h (1 Bft) O-NO 0,00 h 0,000 mm 0,0 UV-I 0 W/m 7,3 C 7,9 C 3,6 km/h (1 Bft) 99,11 %
21.09.2016 05:00 7,6 C 96 % 1017,4 hPa 0,0 l/m 0,7 km/h (0 Bft) O-NO 0,00 h 0,000 mm 0,0 UV-I 0 W/m 7,1 C 7,6 C 1,4 km/h (1 Bft) 98,79 %
21.09.2016 06:00 8,1 C 97 % 1017,5 hPa 0,0 l/m 0,6 km/h (0 Bft) O-NO 0,00 h 0,000 mm 0,0 UV-I 5 W/m 7,6 C 8,1 C 1,7 km/h (1 Bft) 98,94 %
21.09.2016 07:00 8,4 C 97 % 1017,7 hPa 0,0 l/m 0,2 km/h (0 Bft) SO 0,00 h 0,000 mm 0,0 UV-I 24 W/m 7,9 C 8,4 C 1,0 km/h (0 Bft) 98,42 %
21.09.2016 08:00 9,0 C 97 % 1017,8 hPa 0,0 l/m 0,8 km/h (0 Bft) SO 0,00 h 0,000 mm 0,0 UV-I 83 W/m 8,5 C 9,0 C 2,0 km/h (1 Bft) 98,65 %
21.09.2016 09:00 10,9 C 89 % 1018,0 hPa 0,0 l/m 4,5 km/h (1 Bft) O-NO 0,63 h 0,051 mm 1,0 UV-I 324 W/m 9,2 C 10,8 C 8,0 km/h (2 Bft) 98,26 %
21.09.2016 10:00 12,6 C 82 % 1018,3 hPa 0,0 l/m 4,5 km/h (1 Bft) N-NO 1,00 h 0,127 mm 1,9 UV-I 497 W/m 9,6 C 12,5 C 8,7 km/h (2 Bft) 99,22 %
21.09.2016 11:00 14,1 C 73 % 1018,3 hPa 0,0 l/m 6,3 km/h (2 Bft) O-NO 1,00 h 0,254 mm 2,8 UV-I 604 W/m 9,3 C 13,7 C 11,2 km/h (2 Bft) 98,07 %
21.09.2016 12:00 15,5 C 64 % 1018,1 hPa 0,0 l/m 7,1 km/h (2 Bft) NO 1,00 h 0,330 mm 3,4 UV-I 677 W/m 8,6 C 14,8 C 13,2 km/h (3 Bft) 99,08 %
21.09.2016 13:00 16,3 C 57 % 1017,9 hPa 0,0 l/m 6,8 km/h (2 Bft) NO 1,00 h 0,381 mm 3,4 UV-I 667 W/m 7,7 C 15,7 C 12,4 km/h (3 Bft) 98,45 %
21.09.2016 14:00 16,7 C 56 % 1017,8 hPa 0,0 l/m 6,5 km/h (2 Bft) N-NO 1,00 h 0,381 mm 2,9 UV-I 616 W/m 7,7 C 15,9 C 11,4 km/h (2 Bft) 98,81 %
21.09.2016 15:00 16,9 C 56 % 1017,6 hPa 0,0 l/m 6,4 km/h (2 Bft) O-NO 1,00 h 0,381 mm 2,0 UV-I 521 W/m 8,1 C 16,2 C 11,3 km/h (2 Bft) 99,51 %
21.09.2016 16:00 17,2 C 56 % 1017,3 hPa 0,0 l/m 5,8 km/h (2 Bft) NO 1,00 h 0,330 mm 1,0 UV-I 441 W/m 8,3 C 16,9 C 10,8 km/h (2 Bft) 98,18 %
21.09.2016 17:00 16,4 C 64 % 1017,2 hPa 0,0 l/m 8,0 km/h (2 Bft) NO 0,80 h 0,280 mm 0,5 UV-I 205 W/m 9,6 C 15,6 C 13,2 km/h (3 Bft) 99,40 %
21.09.2016 18:00 15,7 C 66 % 1017,4 hPa 0,0 l/m 4,9 km/h (1 Bft) O-NO 0,90 h 0,152 mm 0,0 UV-I 74 W/m 9,2 C 15,7 C 7,5 km/h (2 Bft) 97,94 %
21.09.2016 19:00 13,1 C 80 % 1017,7 hPa 0,0 l/m 1,7 km/h (1 Bft) O 0,00 h 0,051 mm 0,0 UV-I 4 W/m 9,7 C 13,1 C 3,0 km/h (1 Bft) 99,42 %
21.09.2016 20:00 11,5 C 87 % 1018,2 hPa 0,0 l/m 0,1 km/h (0 Bft) O 0,00 h 0,000 mm 0,0 UV-I 0 W/m 9,4 C 11,5 C 0,6 km/h (0 Bft) 97,95 %
21.09.2016 21:00 10,8 C 90 % 1018,7 hPa 0,0 l/m 2,1 km/h (1 Bft) S 0,00 h 0,000 mm 0,0 UV-I 0 W/m 9,3 C 10,8 C 3,6 km/h (1 Bft) 99,06 %
21.09.2016 22:00 10,5 C 91 % 1019,2 hPa 0,0 l/m 1,8 km/h (1 Bft) S 0,00 h 0,000 mm 0,0 UV-I 0 W/m 9,1 C 10,5 C 3,4 km/h (1 Bft) 98,21 %
21.09.2016 23:00 9,9 C 90 % 1019,6 hPa 0,0 l/m 2,5 km/h (1 Bft) S-SO 0,00 h 0,000 mm 0,0 UV-I 0 W/m 8,3 C 9,9 C 4,7 km/h (1 Bft) 99,04 %
22.09.2016 00:00 9,2 C 92 % 1019,8 hPa 0,0 l/m 4,0 km/h (1 Bft) S 0,00 h 0,000 mm 0,0 UV-I 0 W/m 8,0 C 9,2 C 6,2 km/h (2 Bft) 98,62 %
22.09.2016 01:00 8,6 C 93 % 1019,9 hPa 0,0 l/m 2,8 km/h (1 Bft) S 0,00 h 0,000 mm 0,0 UV-I 0 W/m 7,6 C 8,6 C 4,5 km/h (1 Bft) 99,09 %
22.09.2016 02:00 7,8 C 95 % 1020,1 hPa 0,0 l/m 2,9 km/h (1 Bft) W-SW 0,00 h 0,000 mm 0,0 UV-I 0 W/m 7,0 C 7,8 C 4,3 km/h (1 Bft) 98,26 %
22.09.2016 03:00 7,6 C 95 % 1020,2 hPa 0,0 l/m 3,6 km/h (1 Bft) S-SW 0,00 h 0,000 mm 0,0 UV-I 0 W/m 6,9 C 7,6 C 5,4 km/h (1 Bft) 99,32 %
22.09.2016 04:00 7,6 C 96 % 1020,3 hPa 0,0 l/m 4,3 km/h (1 Bft) S 0,00 h 0,000 mm 0,0 UV-I 0 W/m 6,9 C 7,5 C 6,5 km/h (2 Bft) 98,39 %
22.09.2016 05:00 7,3 C 95 % 1020,3 hPa 0,0 l/m 4,2 km/h (1 Bft) S 0,00 h 0,000 mm 0,0 UV-I 0 W/m 6,6 C 7,3 C 5,9 km/h (2 Bft) 99,02 %
22.09.2016 06:00 6,8 C 96 % 1020,6 hPa 0,0 l/m 1,1 km/h (1 Bft) S 0,00 h 0,000 mm 0,0 UV-I 6 W/m 6,1 C 6,8 C 2,1 km/h (1 Bft) 98,65 %
22.09.2016 07:00 7,3 C 96 % 1020,9 hPa 0,0 l/m 4,8 km/h (1 Bft) S 0,27 h 0,000 mm 0,0 UV-I 52 W/m 6,7 C 7,3 C 7,3 km/h (2 Bft) 98,57 %
22.09.2016 08:00 9,4 C 93 % 1021,4 hPa 0,0 l/m 3,2 km/h (1 Bft) S-SW 1,00 h 0,025 mm 0,5 UV-I 194 W/m 8,3 C 9,4 C 5,7 km/h (1 Bft) 98,87 %
22.09.2016 09:00 10,6 C 89 % 1022,1 hPa 0,0 l/m 1,8 km/h (1 Bft) N-NO 0,27 h 0,102 mm 0,9 UV-I 216 W/m 8,9 C 10,6 C 3,7 km/h (1 Bft) 99,05 %
22.09.2016 10:00 12,4 C 85 % 1022,5 hPa 0,0 l/m 3,7 km/h (1 Bft) NO 0,87 h 0,102 mm 1,8 UV-I 457 W/m 10,0 C 12,4 C 6,2 km/h (2 Bft) 98,22 %
22.09.2016 11:00 14,6 C 76 % 1022,5 hPa 0,0 l/m 7,6 km/h (2 Bft) NO 1,00 h 0,228 mm 2,6 UV-I 610 W/m 10,4 C 13,8 C 12,8 km/h (3 Bft) 99,29 %
22.09.2016 12:00 15,3 C 73 % 1022,5 hPa 0,0 l/m 6,7 km/h (2 Bft) O-NO 0,43 h 0,305 mm 2,5 UV-I 430 W/m 10,4 C 14,9 C 11,0 km/h (2 Bft) 98,44 %
22.09.2016 13:00 16,5 C 67 % 1022,3 hPa 0,0 l/m 6,3 km/h (2 Bft) O-NO 1,00 h 0,254 mm 3,2 UV-I 666 W/m 10,4 C 16,1 C 11,8 km/h (2 Bft) 99,53 %
22.09.2016 14:00 17,2 C 62 % 1021,8 hPa 0,0 l/m 4,6 km/h (1 Bft) O 1,00 h 0,381 mm 2,7 UV-I 613 W/m 9,9 C 17,1 C 9,1 km/h (2 Bft) 98,24 %
22.09.2016 15:00 17,8 C 58 % 1021,4 hPa 0,0 l/m 4,2 km/h (1 Bft) N-NO 1,00 h 0,356 mm 1,9 UV-I 515 W/m 9,4 C 17,7 C 7,9 km/h (2 Bft) 98,86 %
22.09.2016 16:00 18,0 C 53 % 1021,0 hPa 0,0 l/m 5,7 km/h (1 Bft) O-NO 1,00 h 0,304 mm 1,0 UV-I 364 W/m 8,3 C 17,8 C 9,9 km/h (2 Bft) 99,03 %
22.09.2016 17:00 17,6 C 54 % 1020,7 hPa 0,0 l/m 6,9 km/h (2 Bft) O-NO 1,00 h 0,254 mm 0,5 UV-I 212 W/m 8,1 C 17,2 C 10,8 km/h (2 Bft) 98,83 %
22.09.2016 18:00 15,6 C 65 % 1020,9 hPa 0,0 l/m 3,2 km/h (1 Bft) O-NO 0,37 h 0,153 mm 0,0 UV-I 47 W/m 9,0 C 15,6 C 5,0 km/h (1 Bft) 99,00 %
22.09.2016 19:00 12,4 C 79 % 1021,1 hPa 0,0 l/m 2,0 km/h (1 Bft) O-NO 0,00 h 0,051 mm 0,0 UV-I 1 W/m 8,8 C 12,4 C 3,2 km/h (1 Bft) 98,67 %
22.09.2016 20:00 10,9 C 84 % 1021,5 hPa 0,0 l/m 0,7 km/h (0 Bft) O 0,00 h 0,000 mm 0,0 UV-I 0 W/m 8,3 C 10,9 C 1,8 km/h (1 Bft) 98,46 %
22.09.2016 21:00 9,6 C 87 % 1021,8 hPa 0,0 l/m 0,9 km/h (0 Bft) O 0,00 h 0,000 mm 0,0 UV-I 0 W/m 7,6 C 9,6 C 1,8 km/h (1 Bft) 99,57 %
22.09.2016 22:00 8,7 C 91 % 1021,8 hPa 0,0 l/m 0,6 km/h (0 Bft) O-SO 0,00 h 0,000 mm 0,0 UV-I 0 W/m 7,3 C 8,7 C 1,5 km/h (1 Bft) 98,10 %
22.09.2016 23:00 8,0 C 93 % 1022,0 hPa 0,0 l/m 1,1 km/h (1 Bft) O-SO 0,00 h 0,000 mm 0,0 UV-I 0 W/m 7,0 C 8,0 C 2,5 km/h (1 Bft) 99,56 %
23.09.2016 00:00 7,7 C 94 % 1022,2 hPa 0,0 l/m 1,6 km/h (1 Bft) S 0,00 h 0,000 mm 0,0 UV-I 0 W/m 6,8 C 7,7 C 2,9 km/h (1 Bft) 98,26 %
23.09.2016 01:00 7,4 C 95 % 1022,4 hPa 0,0 l/m 0,4 km/h (0 Bft) S 0,00 h 0,000 mm 0,0 UV-I 0 W/m 6,5 C 7,4 C 1,0 km/h (0 Bft) 99,40 %
23.09.2016 02:00 7,1 C 95 % 1022,6 hPa 0,0 l/m 1,0 km/h (0 Bft) S 0,00 h 0,000 mm 0,0 UV-I 0 W/m 6,4 C 7,1 C 2,3 km/h (1 Bft) 98,16 %
23.09.2016 03:00 7,2 C 95 % 1022,4 hPa 0,0 l/m 1,1 km/h (1 Bft) S 0,00 h 0,000 mm 0,0 UV-I 0 W/m 6,4 C 7,2 C 2,2 km/h (1 Bft) 99,41 %
23.09.2016 04:00 6,5 C 96 % 1022,7 hPa 0,0 l/m 0,1 km/h (0 Bft) S 0,00 h 0,000 mm 0,0 UV-I 0 W/m 5,9 C 6,5 C 0,4 km/h (0 Bft) 97,59 %
23.09.2016 05:00 5,9 C 96 % 1022,9 hPa 0,0 l/m 0,8 km/h (0 Bft) S 0,00 h 0,000 mm 0,0 UV-I 0 W/m 5,3 C 5,9 C 1,5 km/h (1 Bft) 99,18 %
23.09.2016 06:00 5,6 C 96 % 1023,1 hPa 0,0 l/m 1,5 km/h (1 Bft) S 0,00 h 0,000 mm 0,0 UV-I 6 W/m 5,0 C 5,6 C 2,9 km/h (1 Bft) 97,69 %
23.09.2016 07:00 6,5 C 96 % 1023,5 hPa 0,2 l/m 2,0 km/h (1 Bft) S 0,30 h 0,000 mm 0,0 UV-I 44 W/m 6,0 C 6,5 C 3,8 km/h (1 Bft) 99,34 %
23.09.2016 08:00 8,1 C 94 % 1024,1 hPa 0,0 l/m 0,1 km/h (0 Bft) N 0,73 h 0,025 mm 0,5 UV-I 181 W/m 7,3 C 8,1 C 0,7 km/h (0 Bft) 97,66 %
23.09.2016 09:00 10,8 C 88 % 1024,6 hPa 0,0 l/m 1,1 km/h (1 Bft) S 1,00 h 0,077 mm 1,1 UV-I 341 W/m 8,9 C 10,8 C 2,7 km/h (1 Bft) 99,56 %
23.09.2016 10:00 12,8 C 84 % 1024,9 hPa 0,0 l/m 1,5 km/h (1 Bft) NO 1,00 h 0,152 mm 1,9 UV-I 458 W/m 10,2 C 12,8 C 3,4 km/h (1 Bft) 97,94 %
23.09.2016 11:00 14,8 C 77 % 1025,0 hPa 0,0 l/m 1,9 km/h (1 Bft) N-NO 1,00 h 0,229 mm 2,8 UV-I 589 W/m 10,8 C 14,8 C 4,0 km/h (1 Bft) 98,69 %
23.09.2016 12:00 16,3 C 72 % 1024,9 hPa 0,0 l/m 2,5 km/h (1 Bft) N-NO 1,00 h 0,304 mm 3,2 UV-I 630 W/m 11,3 C 16,3 C 5,1 km/h (1 Bft) 98,94 %
23.09.2016 13:00 17,6 C 64 % 1024,8 hPa 0,0 l/m 3,1 km/h (1 Bft) N-NO 1,00 h 0,331 mm 3,2 UV-I 625 W/m 10,7 C 17,6 C 6,0 km/h (2 Bft) 98,67 %
23.09.2016 14:00 18,8 C 55 % 1024,5 hPa 0,0 l/m 2,9 km/h (1 Bft) NO 1,00 h 0,355 mm 2,7 UV-I 585 W/m 9,5 C 18,8 C 5,2 km/h (1 Bft) 99,02 %
23.09.2016 15:00 19,0 C 52 % 1024,3 hPa 0,0 l/m 4,1 km/h (1 Bft) W 1,00 h 0,356 mm 1,7 UV-I 430 W/m 8,9 C 19,0 C 8,2 km/h (2 Bft) 98,02 %
23.09.2016 16:00 19,1 C 55 % 1024,2 hPa 0,0 l/m 3,1 km/h (1 Bft) W 0,93 h 0,279 mm 0,9 UV-I 305 W/m 9,7 C 19,0 C 5,7 km/h (1 Bft) 98,55 %
23.09.2016 17:00 18,2 C 64 % 1024,4 hPa 0,0 l/m 2,1 km/h (1 Bft) W-SW 0,07 h 0,203 mm 0,4 UV-I 109 W/m 11,2 C 18,2 C 3,6 km/h (1 Bft) 98,30 %
23.09.2016 18:00 15,7 C 79 % 1024,5 hPa 0,0 l/m 1,2 km/h (1 Bft) W-SW 0,03 h 0,077 mm 0,0 UV-I 29 W/m 12,0 C 15,7 C 2,1 km/h (1 Bft) 99,06 %
23.09.2016 19:00 13,5 C 86 % 1024,8 hPa 0,0 l/m 1,1 km/h (1 Bft) W-SW 0,00 h 0,025 mm 0,0 UV-I 5 W/m 11,1 C 13,5 C 2,5 km/h (1 Bft) 97,71 %
23.09.2016 20:00 12,5 C 87 % 1025,2 hPa 0,0 l/m 1,9 km/h (1 Bft) W-SW 0,00 h 0,000 mm 0,0 UV-I 0 W/m 10,4 C 12,5 C 3,1 km/h (1 Bft) 98,43 %
23.09.2016 21:00 11,7 C 89 % 1025,5 hPa 0,0 l/m 2,0 km/h (1 Bft) W-SW 0,00 h 0,000 mm 0,0 UV-I 0 W/m 10,0 C 11,7 C 3,3 km/h (1 Bft) 98,64 %
23.09.2016 22:00 11,7 C 91 % 1025,7 hPa 0,0 l/m 4,2 km/h (1 Bft) S 0,00 h 0,000 mm 0,0 UV-I 0 W/m 10,3 C 11,7 C 5,9 km/h (2 Bft) 97,75 %
23.09.2016 23:00 11,4 C 92 % 1025,9 hPa 0,0 l/m 2,2 km/h (1 Bft) S 0,00 h 0,000 mm 0,0 UV-I 0 W/m 10,1 C 11,4 C 3,6 km/h (1 Bft) 99,08 %
24.09.2016 00:00 10,6 C 93 % 1026,0 hPa 0,0 l/m 2,0 km/h (1 Bft) S 0,00 h 0,000 mm 0,0 UV-I 0 W/m 9,6 C 10,6 C 3,0 km/h (1 Bft) 97,83 %
24.09.2016 01:00 9,6 C 94 % 1026,1 hPa 0,0 l/m 0,9 km/h (0 Bft) S 0,00 h 0,000 mm 0,0 UV-I 0 W/m 8,7 C 9,6 C 1,7 km/h (1 Bft) 99,21 %
24.09.2016 02:00 8,8 C 95 % 1026,0 hPa 0,0 l/m 0,1 km/h (0 Bft) S 0,00 h 0,000 mm 0,0 UV-I 0 W/m 8,1 C 8,8 C 0,3 km/h (0 Bft) 97,51 %
24.09.2016 03:00 8,4 C 96 % 1025,9 hPa 0,0 l/m 0,6 km/h (0 Bft) S 0,00 h 0,000 mm 0,0 UV-I 0 W/m 7,7 C 8,4 C 1,2 km/h (1 Bft) 99,50 %
24.09.2016 04:00 7,9 C 96 % 1026,0 hPa 0,0 l/m 0,6 km/h (0 Bft) S 0,00 h 0,000 mm 0,0 UV-I 0 W/m 7,3 C 7,9 C 0,9 km/h (0 Bft) 97,38 %
24.09.2016 05:00 7,4 C 96 % 1026,0 hPa 0,0 l/m 0,4 km/h (0 Bft) S 0,00 h 0,000 mm 0,0 UV-I 0 W/m 6,8 C 7,4 C 0,9 km/h (0 Bft) 99,21 %
24.09.2016 06:00 7,0 C 96 % 1026,0 hPa 0,0 l/m 0,4 km/h (0 Bft) S 0,00 h 0,000 mm 0,0 UV-I 4 W/m 6,4 C 7,0 C 1,4 km/h (1 Bft) 97,94 %
24.09.2016 07:00 7,4 C 97 % 1026,4 hPa 0,0 l/m 0,1 km/h (0 Bft) S 0,00 h 0,000 mm 0,0 UV-I 29 W/m 6,9 C 7,4 C 0,3 km/h (0 Bft) 99,22 %
24.09.2016 08:00 8,3 C 98 % 1026,8 hPa 0,2 l/m 1,1 km/h (1 Bft) S-SO 0,40 h 0,025 mm 0,5 UV-I 140 W/m 8,0 C 8,3 C 3,5 km/h (1 Bft) 97,93 %
24.09.2016 09:00 10,6 C 96 % 1026,7 hPa 0,0 l/m 1,2 km/h (1 Bft) S-SO 1,00 h 0,051 mm 0,9 UV-I 330 W/m 10,1 C 10,6 C 3,4 km/h (1 Bft) 98,57 %
24.09.2016 10:00 13,4 C 90 % 1026,8 hPa 0,0 l/m 3,5 km/h (1 Bft) N-NO 1,00 h 0,153 mm 1,8 UV-I 482 W/m 11,8 C 13,3 C 7,0 km/h (2 Bft) 97,54 %
24.09.2016 11:00 15,3 C 82 % 1026,5 hPa 0,0 l/m 3,9 km/h (1 Bft) N-NO 1,00 h 0,254 mm 2,5 UV-I 578 W/m 12,2 C 15,2 C 7,8 km/h (2 Bft) 98,77 %
24.09.2016 12:00 17,4 C 74 % 1026,1 hPa 0,0 l/m 4,5 km/h (1 Bft) NO 1,00 h 0,304 mm 3,1 UV-I 644 W/m 12,8 C 17,4 C 8,7 km/h (2 Bft) 97,67 %
24.09.2016 13:00 19,0 C 64 % 1025,5 hPa 0,0 l/m 6,9 km/h (2 Bft) O-NO 1,00 h 0,356 mm 3,0 UV-I 619 W/m 12,1 C 18,5 C 12,0 km/h (2 Bft) 98,38 %
24.09.2016 14:00 19,5 C 59 % 1024,7 hPa 0,0 l/m 4,4 km/h (1 Bft) O-NO 1,00 h 0,381 mm 2,5 UV-I 556 W/m 11,2 C 19,5 C 8,3 km/h (2 Bft) 98,66 %
24.09.2016 15:00 20,0 C 57 % 1024,0 hPa 0,0 l/m 4,2 km/h (1 Bft) NO 1,00 h 0,330 mm 1,7 UV-I 459 W/m 11,1 C 19,9 C 7,8 km/h (2 Bft) 98,12 %
24.09.2016 16:00 20,1 C 56 % 1023,5 hPa 0,0 l/m 4,2 km/h (1 Bft) NO 1,00 h 0,305 mm 0,9 UV-I 318 W/m 11,0 C 20,1 C 7,5 km/h (2 Bft) 99,06 %
24.09.2016 17:00 19,5 C 58 % 1023,4 hPa 0,0 l/m 4,4 km/h (1 Bft) NO 1,00 h 0,203 mm 0,4 UV-I 181 W/m 11,1 C 19,5 C 6,7 km/h (2 Bft) 97,71 %
24.09.2016 18:00 17,4 C 71 % 1023,3 hPa 0,0 l/m 1,7 km/h (1 Bft) NO 0,47 h 0,127 mm 0,0 UV-I 47 W/m 12,0 C 17,4 C 2,9 km/h (1 Bft) 98,87 %
24.09.2016 19:00 14,0 C 82 % 1023,0 hPa 0,0 l/m 0,4 km/h (0 Bft) NO 0,00 h 0,026 mm 0,0 UV-I 4 W/m 10,9 C 14,0 C 1,2 km/h (1 Bft) 97,93 %
24.09.2016 20:00 12,6 C 85 % 1022,9 hPa 0,0 l/m 0,6 km/h (0 Bft) NO 0,00 h 0,000 mm 0,0 UV-I 0 W/m 10,2 C 12,6 C 1,9 km/h (1 Bft) 98,67 %
24.09.2016 21:00 11,5 C 89 % 1022,8 hPa 0,0 l/m 1,4 km/h (1 Bft) O-SO 0,00 h 0,000 mm 0,0 UV-I 0 W/m 9,8 C 11,5 C 2,8 km/h (1 Bft) 98,47 %
24.09.2016 22:00 10,9 C 91 % 1022,8 hPa 0,0 l/m 1,1 km/h (1 Bft) O-SO 0,00 h 0,000 mm 0,0 UV-I 0 W/m 9,5 C 10,9 C 2,0 km/h (1 Bft) 98,20 %
24.09.2016 23:00 10,3 C 92 % 1022,5 hPa 0,0 l/m 0,5 km/h (0 Bft) O-SO 0,00 h 0,000 mm 0,0 UV-I 0 W/m 9,0 C 10,3 C 1,6 km/h (1 Bft) 98,95 %
25.09.2016 00:00 9,5 C 93 % 1022,2 hPa 0,0 l/m 0,3 km/h (0 Bft) O-SO 0,00 h 0,000 mm 0,0 UV-I 0 W/m 8,5 C 9,5 C 0,7 km/h (0 Bft) 97,80 %
25.09.2016 01:00 9,0 C 94 % 1021,9 hPa 0,0 l/m 0,6 km/h (0 Bft) O-SO 0,00 h 0,000 mm 0,0 UV-I 0 W/m 8,1 C 9,0 C 1,4 km/h (1 Bft) 99,37 %
25.09.2016 02:00 8,5 C 95 % 1021,7 hPa 0,0 l/m 0,7 km/h (0 Bft) O-SO 0,00 h 0,000 mm 0,0 UV-I 0 W/m 7,7 C 8,5 C 1,6 km/h (1 Bft) 97,72 %
25.09.2016 03:00 8,0 C 95 % 1021,6 hPa 0,0 l/m 1,6 km/h (1 Bft) O-SO 0,00 h 0,000 mm 0,0 UV-I 0 W/m 7,3 C 8,0 C 2,7 km/h (1 Bft) 99,44 %
25.09.2016 04:00 7,6 C 96 % 1021,5 hPa 0,0 l/m 1,5 km/h (1 Bft) O-SO 0,00 h 0,000 mm 0,0 UV-I 0 W/m 7,0 C 7,6 C 2,8 km/h (1 Bft) 97,64 %
25.09.2016 05:00 7,5 C 96 % 1021,4 hPa 0,0 l/m 0,9 km/h (0 Bft) O-SO 0,00 h 0,000 mm 0,0 UV-I 0 W/m 6,9 C 7,5 C 1,7 km/h (1 Bft) 98,93 %
25.09.2016 06:00 6,9 C 96 % 1021,4 hPa 0,0 l/m 0,4 km/h (0 Bft) O-SO 0,00 h 0,000 mm 0,0 UV-I 5 W/m 6,3 C 6,9 C 0,9 km/h (0 Bft) 98,80 %
25.09.2016 07:00 6,8 C 96 % 1021,5 hPa 0,0 l/m 0,6 km/h (0 Bft) O-SO 0,00 h 0,000 mm 0,0 UV-I 37 W/m 6,2 C 6,8 C 1,1 km/h (0 Bft) 98,31 %
25.09.2016 08:00 8,2 C 97 % 1021,5 hPa 0,0 l/m 0,4 km/h (0 Bft) O-SO 0,17 h 0,025 mm 0,0 UV-I 114 W/m 7,8 C 8,2 C 1,2 km/h (1 Bft) 99,56 %
25.09.2016 09:00 9,5 C 97 % 1021,6 hPa 0,0 l/m 0,8 km/h (0 Bft) O-NO 0,00 h 0,051 mm 0,6 UV-I 151 W/m 9,1 C 9,5 C 2,1 km/h (1 Bft) 98,58 %
25.09.2016 10:00 11,1 C 97 % 1021,4 hPa 0,0 l/m 2,5 km/h (1 Bft) O-NO 0,47 h 0,076 mm 1,4 UV-I 345 W/m 10,6 C 11,0 C 4,7 km/h (1 Bft) 99,46 %
25.09.2016 11:00 14,1 C 84 % 1021,1 hPa 0,0 l/m 7,4 km/h (2 Bft) O-NO 1,00 h 0,178 mm 2,5 UV-I 555 W/m 11,4 C 13,4 C 11,7 km/h (2 Bft) 98,35 %
25.09.2016 12:00 16,2 C 78 % 1020,6 hPa 0,0 l/m 6,1 km/h (2 Bft) NO 1,00 h 0,305 mm 3,1 UV-I 595 W/m 12,3 C 15,9 C 10,0 km/h (2 Bft) 98,12 %
25.09.2016 13:00 18,2 C 70 % 1019,8 hPa 0,0 l/m 4,5 km/h (1 Bft) NO 1,00 h 0,330 mm 3,2 UV-I 641 W/m 12,6 C 18,1 C 8,5 km/h (2 Bft) 99,54 %
25.09.2016 14:00 19,2 C 66 % 1019,2 hPa 0,0 l/m 5,6 km/h (1 Bft) NO 1,00 h 0,356 mm 2,6 UV-I 586 W/m 12,6 C 19,0 C 10,1 km/h (2 Bft) 98,06 %
25.09.2016 15:00 20,0 C 60 % 1018,8 hPa 0,0 l/m 4,9 km/h (1 Bft) O-NO 1,00 h 0,355 mm 1,8 UV-I 494 W/m 12,1 C 20,0 C 8,9 km/h (2 Bft) 98,98 %
25.09.2016 16:00 20,4 C 55 % 1018,4 hPa 0,0 l/m 4,1 km/h (1 Bft) O-NO 1,00 h 0,305 mm 0,9 UV-I 354 W/m 11,1 C 20,4 C 7,3 km/h (2 Bft) 97,96 %
25.09.2016 17:00 20,2 C 55 % 1018,2 hPa 0,0 l/m 3,5 km/h (1 Bft) O-NO 1,00 h 0,229 mm 0,5 UV-I 199 W/m 10,7 C 20,2 C 5,7 km/h (1 Bft) 99,49 %
25.09.2016 18:00 17,4 C 71 % 1018,3 hPa 0,0 l/m 2,0 km/h (1 Bft) O-NO 0,30 h 0,152 mm 0,0 UV-I 36 W/m 12,0 C 17,4 C 3,4 km/h (1 Bft) 98,53 %
25.09.2016 19:00 14,2 C 80 % 1018,7 hPa 0,0 l/m 0,2 km/h (0 Bft) N 0,00 h 0,026 mm 0,0 UV-I 0 W/m 10,9 C 14,2 C 0,9 km/h (0 Bft) 99,29 %
25.09.2016 20:00 12,5 C 86 % 1019,2 hPa 0,0 l/m 1,0 km/h (0 Bft) O-NO 0,00 h 0,000 mm 0,0 UV-I 0 W/m 10,3 C 12,5 C 1,4 km/h (1 Bft) 97,97 %
25.09.2016 21:00 11,6 C 90 % 1019,6 hPa 0,0 l/m 3,3 km/h (1 Bft) S-SW 0,00 h 0,000 mm 0,0 UV-I 0 W/m 10,0 C 11,6 C 4,9 km/h (1 Bft) 99,67 %
25.09.2016 22:00 11,6 C 91 % 1019,9 hPa 0,0 l/m 1,6 km/h (1 Bft) S-SW 0,00 h 0,000 mm 0,0 UV-I 0 W/m 10,1 C 11,6 C 3,0 km/h (1 Bft) 98,01 %
25.09.2016 23:00 10,8 C 93 % 1020,1 hPa 0,0 l/m 2,1 km/h (1 Bft) S-SW 0,00 h 0,000 mm 0,0 UV-I 0 W/m 9,7 C 10,8 C 3,7 km/h (1 Bft) 98,96 %
Min-Datum _ 23.09.16 21.09.16 19.09.16 - 20.09.16 - - - - - 23.09.16 23.09.16 20.09.16 25.09.16
_ Min-Zeit 06:40 14:18 00:00 - 02:56 - - - - - 05:56 05:56 02:56 11:04
Minimum _ 5,4 C 50 % 1009,9 hPa - 0,0 km/h (0 Bft) - - - - - 4,9 C 5,5 C 0,0 km/h (0 Bft) 90,91 %
Max-Datum _ 25.09.16 20.09.16 24.09.16 19.09.16 19.09.16 - 21.09.16 21.09.16 21.09.16 22.09.16 19.09.16 25.09.16 19.09.16 19.09.16
_ Max-Zeit 16:22 02:14 08:10 19:16 13:02 - 09:25 13:00 12:42 12:24 09:36 16:42 12:08 00:06
Maximum _ 20,6 C 98 % 1027,0 hPa 4,8 l/m 17,2 km/h
W-SW (3 Bft)
- 0,08 h 0,381 mm 3,5 UV-I 827 W/m 14,0 C 20,6 C 30,6 km/h
W-SW (5 Bft)
100,00 %
Durchschnitt _ 12,4 C 86 % 1019,5 hPa #36,4 l/m 3,6 km/h (1 Bft) W-SW #46:18 h #13,870 mm 1,6 UV-I 258 W/m 9,9 C 12,1 C 6,3 km/h (2 Bft) 98,60 %